Time;durP1;ratioP1;P1;durP2;ratioP2;P2;SDS_P1;SDS_P2;PMS_P1;PMS_P2;Temp;Humidity;BMP_temperature;BMP_pressure;BME280_temperature;BME280_humidity;BME280_pressure;Samples;Min_cycle;Max_cycle;Signal;HPM_P1;HPM_P2
2023/04/08 00:01:16;;;;;;;1.25;0.30;;;19.30;64.30;;;;;;5006841;28;20100;-67
2023/04/08 00:03:43;;;;;;;1.25;0.68;;;19.30;64.30;;;;;;5010997;28;20058;-67
2023/04/08 00:06:10;;;;;;;1.63;0.43;;;19.30;64.20;;;;;;5011099;28;20133;-67
2023/04/08 00:08:37;;;;;;;1.52;0.85;;;19.30;64.20;;;;;;5012600;28;20057;-67
2023/04/08 00:11:05;;;;;;;1.38;0.30;;;19.30;64.20;;;;;;5012421;28;20409;-67
2023/04/08 00:13:32;;;;;;;1.70;0.88;;;19.30;64.20;;;;;;5011485;28;20448;-67
2023/04/08 00:16:00;;;;;;;1.15;0.40;;;19.30;64.20;;;;;;5011581;28;20407;-67
2023/04/08 00:18:29;;;;;;;1.25;0.80;;;19.30;64.20;;;;;;5012165;28;20154;-67
2023/04/08 00:20:57;;;;;;;1.02;0.52;;;19.30;64.20;;;;;;5012031;28;20062;-67
2023/04/08 00:23:24;;;;;;;1.42;1.08;;;19.20;64.20;;;;;;5010858;28;20056;-67
2023/04/08 00:25:51;;;;;;;1.25;0.75;;;19.30;64.20;;;;;;5010142;28;20133;-67
2023/04/08 00:28:20;;;;;;;1.20;0.30;;;19.20;64.10;;;;;;5010672;28;20475;-67
2023/04/08 00:30:47;;;;;;;1.45;0.80;;;19.20;64.20;;;;;;5011670;28;20089;-67
2023/04/08 00:33:14;;;;;;;1.50;0.40;;;19.20;64.20;;;;;;5011796;28;20064;-67
2023/04/08 00:35:41;;;;;;;1.23;0.57;;;19.20;64.20;;;;;;5011424;28;20050;-67
2023/04/08 00:38:09;;;;;;;1.33;0.85;;;19.20;64.20;;;;;;5011450;28;20066;-67
2023/04/08 00:40:36;;;;;;;1.60;0.93;;;19.20;64.20;;;;;;5011706;28;20061;-67
2023/04/08 00:43:03;;;;;;;1.52;0.85;;;19.20;64.80;;;;;;5011295;28;20058;-67
2023/04/08 00:45:33;;;;;;;1.20;0.88;;;19.20;64.20;;;;;;5011626;28;20046;-67
2023/04/08 00:48:00;;;;;;;1.58;0.80;;;19.10;64.10;;;;;;5010139;28;20068;-67
2023/04/08 00:50:27;;;;;;;1.20;0.60;;;19.20;64.20;;;;;;5010253;28;20057;-70
2023/04/08 00:52:54;;;;;;;1.52;0.52;;;19.10;64.10;;;;;;5010935;28;20054;-67
2023/04/08 00:55:21;;;;;;;1.85;0.80;;;19.10;64.20;;;;;;5000424;28;20473;-67
2023/04/08 00:57:49;;;;;;;1.10;0.30;;;19.10;64.10;;;;;;4991692;28;20054;-68
2023/04/08 01:00:16;;;;;;;1.00;0.20;;;19.10;64.10;;;;;;4991702;28;20050;-68
2023/04/08 01:02:51;;;;;;;1.75;0.38;;;19.10;64.10;;;;;;4991709;28;20453;-67
2023/04/08 01:05:28;;;;;;;1.30;0.93;;;19.10;64.10;;;;;;4990034;28;20124;-67
2023/04/08 01:07:55;;;;;;;1.30;0.95;;;19.10;64.10;;;;;;4993300;28;20058;-67
2023/04/08 01:10:26;;;;;;;1.50;0.75;;;19.10;64.10;;;;;;5010910;28;20041;-67
2023/04/08 01:12:56;;;;;;;1.33;0.25;;;19.10;64.00;;;;;;5010905;28;20058;-67
2023/04/08 01:15:24;;;;;;;1.15;0.30;;;19.10;64.00;;;;;;5010938;28;20569;-67
2023/04/08 01:17:55;;;;;;;1.00;0.30;;;19.10;64.00;;;;;;5009907;28;20065;-67
2023/04/08 01:20:25;;;;;;;1.45;0.32;;;19.10;64.00;;;;;;5009441;28;20050;-67
2023/04/08 01:23:06;;;;;;;1.05;0.20;;;19.10;64.00;;;;;;5010358;28;20053;-67
2023/04/08 01:25:36;;;;;;;0.77;0.20;;;19.10;64.00;;;;;;5004148;28;20448;-67
2023/04/08 01:28:07;;;;;;;1.23;0.30;;;19.10;64.00;;;;;;5009229;28;20493;-68
2023/04/08 01:30:35;;;;;;;1.52;0.30;;;19.00;64.00;;;;;;5010528;28;20054;-67
2023/04/08 01:33:04;;;;;;;1.50;0.90;;;19.00;64.00;;;;;;5010593;28;20053;-67
2023/04/08 01:35:31;;;;;;;1.05;0.20;;;19.10;64.00;;;;;;5010227;28;20057;-67
2023/04/08 01:37:59;;;;;;;1.50;0.50;;;19.00;64.00;;;;;;5010504;28;20050;-67
2023/04/08 01:40:27;;;;;;;1.98;0.93;;;19.00;64.10;;;;;;5009426;28;20057;-67
2023/04/08 01:42:56;;;;;;;1.23;0.30;;;19.00;64.00;;;;;;5010487;28;20046;-67
2023/04/08 01:45:25;;;;;;;1.10;0.40;;;19.00;64.00;;;;;;5010295;28;20046;-68
2023/04/08 01:47:53;;;;;;;1.38;1.05;;;19.00;64.00;;;;;;5010359;28;20089;-67
2023/04/08 01:50:20;;;;;;;1.52;0.30;;;19.00;64.00;;;;;;5010322;28;20260;-67
2023/04/08 01:52:51;;;;;;;1.42;0.20;;;19.00;64.00;;;;;;5009826;28;20062;-67
2023/04/08 01:55:19;;;;;;;1.40;0.77;;;19.00;64.00;;;;;;4990456;28;20489;-68
2023/04/08 01:57:50;;;;;;;1.40;0.30;;;19.00;64.00;;;;;;4989544;28;20453;-68
2023/04/08 02:00:20;;;;;;;1.10;0.30;;;19.00;64.00;;;;;;5003724;28;20212;-67
2023/04/08 02:02:50;;;;;;;1.08;0.30;;;19.00;64.00;;;;;;5010401;28;20490;-68
2023/04/08 02:05:17;;;;;;;;;;;19.00;64.00;;;;;;5010553;28;20065;-67
2023/04/08 02:07:45;;;;;;;1.25;0.22;;;19.00;63.90;;;;;;5010218;28;19921;-68
2023/04/08 02:10:12;;;;;;;1.02;0.22;;;18.90;63.90;;;;;;5008670;28;20049;-67
2023/04/08 02:12:39;;;;;;;1.20;0.40;;;18.90;63.90;;;;;;5008685;28;20054;-67
2023/04/08 02:15:08;;;;;;;1.73;0.32;;;18.90;63.90;;;;;;5010148;28;20045;-68
2023/04/08 02:17:39;;;;;;;1.63;0.95;;;18.90;63.90;;;;;;5009795;28;20049;-68
2023/04/08 02:20:11;;;;;;;1.40;0.60;;;18.90;63.90;;;;;;5008407;28;20064;-68
2023/04/08 02:22:42;;;;;;;1.83;0.80;;;18.90;63.90;;;;;;5008526;28;20058;-68
2023/04/08 02:25:15;;;;;;;0.90;0.30;;;18.90;63.90;;;;;;5009493;28;20056;-67
2023/04/08 02:27:43;;;;;;;1.25;0.30;;;18.90;63.90;;;;;;5008916;28;20062;-67
2023/04/08 02:30:11;;;;;;;1.25;0.20;;;18.90;63.90;;;;;;5009593;28;20057;-68
2023/04/08 02:32:39;;;;;;;1.33;0.30;;;18.90;63.90;;;;;;5009623;28;20057;-67
2023/04/08 02:35:09;;;;;;;1.45;0.30;;;18.90;63.90;;;;;;4990516;28;20061;-68
2023/04/08 02:37:36;;;;;;;1.00;0.20;;;18.90;63.80;;;;;;4992151;28;20082;-68
2023/04/08 02:40:04;;;;;;;1.85;0.80;;;18.90;63.80;;;;;;4994585;28;20054;-67
2023/04/08 02:42:31;;;;;;;0.80;0.20;;;18.90;63.80;;;;;;4992884;28;20386;-67
2023/04/08 02:44:57;;;;;;;0.98;0.28;;;18.90;63.80;;;;;;4994263;28;20067;-67
2023/04/08 02:47:24;;;;;;;1.55;0.20;;;18.90;63.90;;;;;;4994213;28;20053;-67
2023/04/08 02:49:54;;;;;;;1.40;0.80;;;18.90;63.80;;;;;;4996686;28;21006;-67
2023/04/08 02:52:22;;;;;;;1.00;0.45;;;18.90;63.80;;;;;;5003918;28;20069;-67
2023/04/08 02:54:49;;;;;;;1.25;0.25;;;18.90;63.80;;;;;;4993731;28;20050;-67
2023/04/08 02:57:16;;;;;;;2.17;0.32;;;18.90;63.80;;;;;;4993751;28;20137;-68
2023/04/08 02:59:43;;;;;;;1.30;0.45;;;18.80;64.40;;;;;;5008782;28;20076;-67
2023/04/08 03:02:10;;;;;;;1.25;0.30;;;18.80;63.80;;;;;;5012438;28;20061;-67
2023/04/08 03:04:37;;;;;;;0.98;0.20;;;18.80;63.70;;;;;;5013091;28;20053;-67
2023/04/08 03:07:04;;;;;;;1.30;0.30;;;18.90;63.80;;;;;;5013193;28;20297;-68
2023/04/08 03:09:33;;;;;;;0.80;0.30;;;18.80;63.70;;;;;;5013298;28;20073;-67
2023/04/08 03:11:59;;;;;;;1.50;0.90;;;18.80;63.80;;;;;;5013243;28;20058;-67
2023/04/08 03:14:26;;;;;;;1.15;0.32;;;18.80;63.70;;;;;;5011800;28;20137;-68
2023/04/08 03:16:53;;;;;;;1.10;0.40;;;18.80;63.70;;;;;;5013127;28;20058;-67
2023/04/08 03:19:20;;;;;;;1.30;0.45;;;18.80;63.70;;;;;;5011806;28;20065;-67
2023/04/08 03:21:47;;;;;;;0.80;0.20;;;18.80;63.70;;;;;;5012850;28;20546;-68
2023/04/08 03:24:14;;;;;;;1.83;0.50;;;18.80;63.70;;;;;;5012747;28;20133;-67
2023/04/08 03:26:43;;;;;;;1.20;0.20;;;18.80;63.60;;;;;;5012797;28;20089;-67
2023/04/08 03:29:10;;;;;;;0.98;0.30;;;18.80;63.60;;;;;;5011933;28;20069;-67
2023/04/08 03:31:37;;;;;;;1.45;0.25;;;18.90;63.60;;;;;;5011552;28;20112;-67
2023/04/08 03:34:04;;;;;;;1.33;0.30;;;18.90;63.40;;;;;;5011608;28;20057;-68
2023/04/08 03:36:31;;;;;;;0.90;0.30;;;19.00;63.40;;;;;;5012559;28;20058;-67
2023/04/08 03:38:58;;;;;;;1.42;0.85;;;19.00;63.40;;;;;;5012530;28;20057;-67
2023/04/08 03:41:25;;;;;;;1.33;0.30;;;19.10;63.30;;;;;;5011660;28;20492;-67
2023/04/08 03:43:53;;;;;;;1.50;0.22;;;19.10;63.20;;;;;;5012483;28;20053;-67
2023/04/08 03:46:21;;;;;;;1.35;0.25;;;19.20;63.20;;;;;;5012417;28;20070;-67
2023/04/08 03:48:48;;;;;;;1.38;0.32;;;19.30;63.10;;;;;;5012014;28;20060;-67
2023/04/08 03:51:15;;;;;;;0.88;0.20;;;19.30;62.90;;;;;;5001449;28;20051;-68
2023/04/08 03:53:42;;;;;;;0.80;0.20;;;19.40;62.90;;;;;;4992986;28;20061;-67
2023/04/08 03:56:09;;;;;;;1.50;0.77;;;19.40;62.70;;;;;;4992694;28;20054;-68
2023/04/08 03:58:36;;;;;;;1.15;0.22;;;19.50;62.70;;;;;;4999047;28;20050;-68
2023/04/08 04:01:04;;;;;;;0.95;0.20;;;19.50;62.60;;;;;;5010909;28;20065;-67
2023/04/08 04:03:31;;;;;;;1.30;0.60;;;19.60;62.60;;;;;;5012272;28;20060;-67
2023/04/08 04:05:58;;;;;;;0.90;0.20;;;19.60;62.50;;;;;;5012207;28;20065;-68
2023/04/08 04:08:25;;;;;;;1.15;0.40;;;19.60;62.50;;;;;;5010920;28;20060;-68
2023/04/08 04:10:52;;;;;;;1.33;0.73;;;19.60;62.40;;;;;;5012245;28;20057;-68
2023/04/08 04:13:20;;;;;;;1.40;0.80;;;19.60;62.50;;;;;;5012225;28;20081;-67
2023/04/08 04:15:47;;;;;;;1.13;0.55;;;19.70;63.10;;;;;;5012255;28;20062;-67
2023/04/08 04:18:16;;;;;;;1.10;0.38;;;19.70;62.50;;;;;;5011848;28;20431;-68
2023/04/08 04:20:43;;;;;;;0.80;0.25;;;19.70;62.50;;;;;;5011157;28;20830;-67
2023/04/08 04:23:10;;;;;;;1.30;0.93;;;19.60;62.50;;;;;;5011891;28;20058;-68
2023/04/08 04:25:40;;;;;;;1.00;0.50;;;19.60;62.40;;;;;;5011473;28;20484;-68
2023/04/08 04:28:08;;;;;;;1.40;0.75;;;19.60;62.50;;;;;;5011155;28;20054;-67
2023/04/08 04:30:37;;;;;;;1.10;0.52;;;19.60;62.50;;;;;;5011495;28;20085;-68
2023/04/08 04:33:04;;;;;;;1.83;0.93;;;19.60;62.50;;;;;;5010505;28;20153;-67
2023/04/08 04:35:32;;;;;;;0.95;0.30;;;19.60;62.50;;;;;;5011585;28;20543;-67
2023/04/08 04:38:00;;;;;;;1.75;0.55;;;19.50;62.50;;;;;;5011690;28;20046;-67
2023/04/08 04:40:27;;;;;;;1.50;0.80;;;19.50;62.50;;;;;;5010508;28;20050;-67
2023/04/08 04:42:54;;;;;;;0.80;0.30;;;19.50;62.60;;;;;;5010642;28;20061;-68
2023/04/08 04:45:21;;;;;;;1.20;0.73;;;19.40;62.60;;;;;;5010421;28;20061;-67
2023/04/08 04:47:48;;;;;;;1.23;0.20;;;19.40;62.60;;;;;;5011288;28;20057;-67
2023/04/08 04:50:15;;;;;;;1.23;0.30;;;19.30;62.60;;;;;;5011300;28;20058;-68
2023/04/08 04:52:43;;;;;;;0.93;0.20;;;19.30;62.70;;;;;;5011294;28;20054;-68
2023/04/08 04:55:10;;;;;;;1.23;0.30;;;19.30;62.70;;;;;;5010339;28;20123;-68
2023/04/08 04:57:37;;;;;;;1.52;0.30;;;19.30;62.80;;;;;;5011492;28;20115;-68
2023/04/08 05:00:05;;;;;;;1.25;0.30;;;19.20;62.80;;;;;;5009669;28;20050;-68
2023/04/08 05:02:32;;;;;;;1.38;0.85;;;19.30;62.90;;;;;;5011317;28;20141;-68
2023/04/08 05:04:59;;;;;;;1.30;0.88;;;19.20;62.80;;;;;;5009945;28;20525;-68
2023/04/08 05:07:26;;;;;;;1.30;1.02;;;19.20;62.80;;;;;;5011008;28;20061;-68
2023/04/08 05:09:54;;;;;;;1.10;0.75;;;19.20;62.90;;;;;;5009838;28;20058;-68
2023/04/08 05:12:21;;;;;;;1.00;0.30;;;19.20;62.90;;;;;;5009910;28;20058;-68
2023/04/08 05:14:48;;;;;;;2.17;0.40;;;19.20;63.00;;;;;;5010932;28;20056;-68
2023/04/08 05:17:15;;;;;;;1.30;0.45;;;19.10;62.90;;;;;;5009489;28;20046;-68
2023/04/08 05:19:42;;;;;;;1.20;0.30;;;19.10;62.90;;;;;;5010705;28;20054;-67
2023/04/08 05:22:09;;;;;;;1.20;0.70;;;19.10;63.00;;;;;;5011234;28;20536;-68
2023/04/08 05:24:36;;;;;;;1.25;0.80;;;19.10;63.00;;;;;;5009247;28;20594;-68
2023/04/08 05:27:04;;;;;;;1.50;0.60;;;19.10;63.00;;;;;;5011030;28;20102;-68
2023/04/08 05:29:31;;;;;;;0.95;0.20;;;19.00;63.50;;;;;;5009602;28;20068;-68
2023/04/08 05:31:58;;;;;;;1.50;0.75;;;19.00;63.00;;;;;;5010932;28;20065;-68
2023/04/08 05:34:25;;;;;;;1.17;0.28;;;19.00;63.00;;;;;;5009505;28;20053;-68
2023/04/08 05:36:52;;;;;;;0.95;0.22;;;19.00;63.00;;;;;;4996906;28;20059;-68
2023/04/08 05:39:20;;;;;;;0.95;0.30;;;19.00;63.00;;;;;;4991157;28;20050;-68
2023/04/08 05:41:47;;;;;;;0.88;0.22;;;19.00;63.10;;;;;;5009003;28;20053;-67
2023/04/08 05:44:15;;;;;;;1.20;0.30;;;19.00;63.10;;;;;;5010395;28;20061;-68
2023/04/08 05:46:42;;;;;;;1.10;0.28;;;19.00;63.10;;;;;;5010625;28;20050;-67
2023/04/08 05:49:09;;;;;;;1.17;0.30;;;18.90;63.00;;;;;;4994222;28;20061;-68
2023/04/08 05:51:36;;;;;;;1.13;0.30;;;19.00;63.10;;;;;;4989642;28;20061;-68
2023/04/08 05:54:03;;;;;;;1.13;0.80;;;18.90;63.70;;;;;;4989500;28;20065;-67
2023/04/08 05:56:31;;;;;;;1.25;0.30;;;18.90;63.10;;;;;;4990582;28;20489;-68
2023/04/08 05:58:58;;;;;;;1.05;0.40;;;18.90;63.10;;;;;;5010238;28;20310;-68
2023/04/08 06:01:26;;;;;;;1.08;0.57;;;18.90;63.10;;;;;;5010432;28;20058;-68
2023/04/08 06:03:54;;;;;;;1.60;1.00;;;18.90;63.10;;;;;;5009323;28;20486;-68
2023/04/08 06:06:21;;;;;;;1.05;0.30;;;18.90;63.10;;;;;;5010703;28;20045;-67
2023/04/08 06:08:48;;;;;;;1.10;0.20;;;18.90;63.10;;;;;;5010197;28;20054;-68
2023/04/08 06:11:15;;;;;;;0.90;0.20;;;18.90;63.10;;;;;;5008133;28;20057;-68
2023/04/08 06:13:42;;;;;;;0.93;0.32;;;18.90;63.10;;;;;;5010131;28;20046;-67
2023/04/08 06:16:14;;;;;;;1.65;0.90;;;18.90;63.10;;;;;;5009018;28;20071;-67
2023/04/08 06:18:42;;;;;;;1.08;0.20;;;18.90;63.10;;;;;;5010601;28;20042;-68
2023/04/08 06:21:10;;;;;;;1.02;0.70;;;18.90;63.00;;;;;;5010152;28;20835;-67
2023/04/08 06:23:37;;;;;;;0.77;0.17;;;18.90;63.00;;;;;;5010186;28;20046;-68
2023/04/08 06:26:04;;;;;;;1.00;0.20;;;18.90;63.00;;;;;;5010079;28;20488;-67
2023/04/08 06:28:31;;;;;;;1.40;0.40;;;19.00;62.90;;;;;;5010117;28;20389;-67
2023/04/08 06:30:59;;;;;;;0.90;0.20;;;19.00;62.90;;;;;;5008791;28;20477;-67
2023/04/08 06:33:26;;;;;;;1.13;0.30;;;19.10;62.80;;;;;;5009997;28;20045;-67
2023/04/08 06:36:02;;;;;;;0.93;0.28;;;19.10;62.80;;;;;;5008542;28;20401;-67
2023/04/08 06:38:29;;;;;;;0.65;0.15;;;19.20;62.80;;;;;;5009862;28;20404;-67
2023/04/08 06:40:56;;;;;;;0.90;0.30;;;19.20;62.60;;;;;;5009058;28;20073;-67
2023/04/08 06:43:23;;;;;;;1.20;0.30;;;19.30;62.50;;;;;;5008924;28;20069;-67
2023/04/08 06:45:50;;;;;;;0.68;0.20;;;19.30;62.40;;;;;;5009432;28;20049;-67
2023/04/08 06:48:18;;;;;;;1.08;0.20;;;19.40;62.40;;;;;;4995771;28;20053;-67
2023/04/08 06:50:44;;;;;;;0.57;0.10;;;19.50;62.30;;;;;;5009943;28;20058;-67
2023/04/08 06:53:13;;;;;;;1.02;0.25;;;19.60;62.20;;;;;;5009783;28;20050;-68
2023/04/08 06:55:40;;;;;;;0.70;0.20;;;19.60;62.10;;;;;;5009261;28;20046;-67
2023/04/08 06:58:07;;;;;;;0.98;0.30;;;19.70;62.10;;;;;;5009932;28;20057;-68
2023/04/08 07:00:34;;;;;;;1.10;0.88;;;19.70;62.00;;;;;;5009904;28;20065;-67
2023/04/08 07:03:01;;;;;;;1.52;1.02;;;19.70;62.00;;;;;;5009016;28;20412;-67
2023/04/08 07:05:28;;;;;;;1.48;0.35;;;19.70;61.90;;;;;;5009620;28;20064;-68
2023/04/08 07:07:55;;;;;;;0.95;0.20;;;19.80;62.00;;;;;;5009912;28;20050;-67
2023/04/08 07:10:23;;;;;;;0.88;0.32;;;19.70;61.90;;;;;;5009015;28;20052;-68
2023/04/08 07:12:51;;;;;;;1.05;0.28;;;19.70;61.90;;;;;;5009624;28;20069;-67
2023/04/08 07:15:18;;;;;;;1.15;0.22;;;19.70;61.90;;;;;;5009882;28;20112;-67
2023/04/08 07:17:45;;;;;;;1.52;1.02;;;19.70;61.90;;;;;;5007963;28;20052;-67
2023/04/08 07:20:13;;;;;;;1.08;0.30;;;19.70;62.00;;;;;;5009754;28;20113;-68
2023/04/08 07:22:40;;;;;;;0.90;0.20;;;19.70;62.00;;;;;;5009583;28;20205;-68
2023/04/08 07:25:08;;;;;;;1.50;0.20;;;19.70;62.00;;;;;;5011622;28;20057;-67
2023/04/08 07:27:36;;;;;;;1.27;0.80;;;19.70;62.00;;;;;;5012875;28;20085;-68
2023/04/08 07:30:04;;;;;;;0.77;0.20;;;19.70;62.00;;;;;;5011877;28;20152;-67
2023/04/08 07:32:32;;;;;;;1.30;0.65;;;19.70;62.00;;;;;;5012114;28;20061;-68
2023/04/08 07:34:59;;;;;;;1.38;0.40;;;19.60;62.10;;;;;;5012028;28;20427;-68
2023/04/08 07:37:26;;;;;;;1.08;0.20;;;19.60;62.10;;;;;;5011424;28;20116;-68
2023/04/08 07:39:54;;;;;;;1.08;0.30;;;19.60;62.10;;;;;;5012732;28;20479;-68
2023/04/08 07:42:21;;;;;;;0.98;0.30;;;19.60;62.10;;;;;;5011434;28;20064;-68
2023/04/08 07:44:49;;;;;;;2.53;0.38;;;19.50;62.10;;;;;;5008832;28;20408;-68
2023/04/08 07:47:16;;;;;;;1.23;0.30;;;19.50;62.10;;;;;;4993076;28;20138;-68
2023/04/08 07:49:47;;;;;;;0.90;0.13;;;19.50;62.10;;;;;;4991982;28;20478;-67
2023/04/08 07:52:14;;;;;;;0.90;0.30;;;19.50;62.20;;;;;;5008150;28;20065;-68
2023/04/08 07:54:41;;;;;;;1.05;0.20;;;19.50;62.20;;;;;;4992772;28;20097;-68
2023/04/08 07:57:08;;;;;;;1.45;0.65;;;19.50;62.20;;;;;;5005520;28;20485;-68
2023/04/08 07:59:35;;;;;;;0.75;0.13;;;19.40;62.20;;;;;;5012573;28;20424;-68
2023/04/08 08:02:04;;;;;;;0.98;0.13;;;19.40;62.20;;;;;;5012491;28;20061;-68
2023/04/08 08:04:31;;;;;;;0.80;0.20;;;19.40;62.20;;;;;;5012531;28;20061;-68
2023/04/08 08:06:58;;;;;;;0.70;0.20;;;19.40;62.20;;;;;;5011115;28;20493;-67
2023/04/08 08:09:25;;;;;;;0.82;0.20;;;19.40;62.30;;;;;;5012454;28;20080;-67
2023/04/08 08:11:52;;;;;;;1.17;0.28;;;19.40;62.30;;;;;;5012138;28;20357;-68
2023/04/08 08:14:20;;;;;;;1.27;0.20;;;19.30;62.20;;;;;;5012146;28;20441;-68
2023/04/08 08:16:48;;;;;;;0.70;0.20;;;19.30;62.20;;;;;;5011145;28;20547;-67
2023/04/08 08:19:16;;;;;;;1.25;0.25;;;19.30;62.30;;;;;;5011855;28;20129;-68
2023/04/08 08:21:43;;;;;;;1.02;0.30;;;19.30;62.40;;;;;;5011095;28;20057;-68
2023/04/08 08:24:10;;;;;;;0.77;0.10;;;19.30;62.40;;;;;;5011763;28;20070;-68
2023/04/08 08:26:37;;;;;;;1.08;0.30;;;19.30;62.40;;;;;;5012239;28;20054;-68
2023/04/08 08:29:07;;;;;;;1.23;0.30;;;19.30;62.40;;;;;;5011569;28;20501;-68
2023/04/08 08:31:34;;;;;;;;;;;19.30;62.40;;;;;;4996193;28;20520;-68
2023/04/08 08:34:01;;;;;;;1.73;0.82;;;19.30;62.40;;;;;;4992191;28;19925;-68
2023/04/08 08:36:30;;;;;;;0.80;0.20;;;19.30;62.40;;;;;;4991294;28;20468;-68
2023/04/08 08:38:57;;;;;;;0.80;0.20;;;19.30;62.50;;;;;;5003618;28;20058;-68
2023/04/08 08:41:25;;;;;;;1.83;0.70;;;19.30;62.50;;;;;;5011379;28;20078;-69
2023/04/08 08:43:52;;;;;;;1.00;0.47;;;19.30;62.50;;;;;;5004144;28;20065;-68
2023/04/08 08:46:19;;;;;;;1.13;0.40;;;19.30;62.50;;;;;;5010464;28;20064;-68
2023/04/08 08:48:46;;;;;;;1.15;0.57;;;19.30;62.50;;;;;;5011790;28;20072;-68
2023/04/08 08:51:14;;;;;;;0.68;0.20;;;19.20;62.50;;;;;;5011578;28;20493;-68
2023/04/08 08:53:44;;;;;;;0.90;0.20;;;19.20;62.60;;;;;;5011065;28;20113;-68
2023/04/08 08:56:11;;;;;;;1.00;0.20;;;19.30;62.70;;;;;;5011539;28;20096;-68
2023/04/08 08:58:39;;;;;;;1.23;0.30;;;19.20;62.60;;;;;;5011432;28;20050;-68
2023/04/08 09:01:30;;;;;;;0.98;0.20;;;19.20;62.70;;;;;;5011266;28;20068;-68
2023/04/08 09:04:11;;;;;;;0.85;0.20;;;19.20;62.60;;;;;;5011221;28;20500;-68
2023/04/08 09:06:38;;;;;;;0.85;0.30;;;19.20;62.60;;;;;;5010229;28;20579;-68
2023/04/08 09:09:09;;;;;;;0.90;0.20;;;19.20;62.70;;;;;;5011305;28;20053;-68
2023/04/08 09:11:37;;;;;;;1.10;0.70;;;19.20;62.70;;;;;;5011365;28;20046;-68
2023/04/08 09:14:05;;;;;;;0.75;0.20;;;19.20;62.70;;;;;;5011231;28;20050;-68
2023/04/08 09:16:33;;;;;;;1.15;0.68;;;19.20;62.70;;;;;;5010963;28;20535;-68
2023/04/08 09:19:10;;;;;;;1.25;0.85;;;19.20;62.70;;;;;;5010868;28;20168;-68
2023/04/08 09:21:37;;;;;;;1.17;0.77;;;19.20;62.70;;;;;;5010612;28;20054;-68
2023/04/08 09:24:06;;;;;;;1.23;0.88;;;19.20;62.70;;;;;;5010411;28;20061;-68
2023/04/08 09:26:33;;;;;;;1.05;0.22;;;19.20;62.70;;;;;;5009765;28;20575;-68
2023/04/08 09:29:03;;;;;;;1.00;0.30;;;19.20;62.70;;;;;;5010694;28;20425;-67
2023/04/08 09:31:31;;;;;;;1.27;0.32;;;19.20;62.60;;;;;;5009294;28;20393;-67
2023/04/08 09:34:01;;;;;;;1.50;0.80;;;19.20;62.60;;;;;;5009464;28;20538;-68
2023/04/08 09:36:29;;;;;;;1.20;0.20;;;19.20;62.70;;;;;;5010240;28;20468;-67
2023/04/08 09:38:57;;;;;;;1.48;0.70;;;19.20;62.60;;;;;;5010058;28;20514;-68
2023/04/08 09:41:28;;;;;;;1.38;0.70;;;19.30;62.70;;;;;;5010956;28;20080;-67
2023/04/08 09:43:56;;;;;;;0.90;0.20;;;19.20;62.60;;;;;;4989666;28;20089;-67
2023/04/08 09:46:27;;;;;;;1.33;0.75;;;19.20;62.60;;;;;;5008444;28;20515;-68
2023/04/08 09:49:05;;;;;;;0.70;0.20;;;19.20;62.70;;;;;;5009066;28;20046;-68
2023/04/08 09:51:36;;;;;;;1.33;0.70;;;19.20;62.70;;;;;;5010282;28;20071;-68
2023/04/08 09:54:12;;;;;;;0.88;0.20;;;19.20;62.70;;;;;;5010268;28;20056;-68
2023/04/08 09:56:48;;;;;;;0.85;0.20;;;19.20;62.60;;;;;;5010081;28;20062;-68
2023/04/08 09:59:20;;;;;;;1.08;0.20;;;19.20;62.60;;;;;;5010340;28;20488;-68
2023/04/08 10:01:52;;;;;;;0.98;0.25;;;19.20;62.60;;;;;;5010053;28;20050;-68
2023/04/08 10:04:22;;;;;;;1.60;1.02;;;19.20;62.70;;;;;;5008827;28;20385;-68
2023/04/08 10:06:54;;;;;;;1.25;0.80;;;19.20;62.70;;;;;;5009241;28;20499;-68
2023/04/08 10:09:22;;;;;;;1.15;0.70;;;19.20;62.70;;;;;;5008742;28;20127;-67
2023/04/08 10:11:50;;;;;;;1.30;0.30;;;19.20;62.80;;;;;;5010020;28;20057;-68
2023/04/08 10:14:17;;;;;;;1.08;0.40;;;19.20;62.80;;;;;;5010181;28;20053;-67
2023/04/08 10:16:44;;;;;;;1.17;0.30;;;19.20;62.80;;;;;;5009907;28;20416;-68
2023/04/08 10:19:42;;;;;;;1.20;0.30;;;19.20;62.80;;;;;;5009718;28;20348;-67
2023/04/08 10:22:47;;;;;;;1.25;0.40;;;19.20;62.80;;;;;;4948981;29;20058;-68
2023/04/08 10:25:29;;;;;;;1.15;0.20;;;19.10;62.90;;;;;;5009818;28;20049;-68
2023/04/08 10:27:58;;;;;;;1.50;0.20;;;19.10;62.80;;;;;;5009698;28;20120;-68
2023/04/08 10:30:44;;;;;;;0.98;0.30;;;19.10;62.80;;;;;;5009746;28;20049;-68
2023/04/08 10:33:13;;;;;;;1.10;0.28;;;19.10;62.90;;;;;;5008893;28;20062;-68
2023/04/08 10:35:45;;;;;;;1.33;0.22;;;19.10;62.80;;;;;;5008516;28;20108;-68
2023/04/08 10:38:13;;;;;;;1.38;0.75;;;19.10;62.90;;;;;;5009799;28;20069;-68
2023/04/08 10:40:41;;;;;;;1.10;0.38;;;19.10;62.90;;;;;;5005574;28;20046;-67
2023/04/08 10:43:11;;;;;;;0.85;0.20;;;19.10;62.90;;;;;;4990211;28;20053;-68
2023/04/08 10:45:39;;;;;;;1.08;0.30;;;19.10;62.90;;;;;;5002111;28;20058;-68
2023/04/08 10:48:17;;;;;;;1.63;0.20;;;19.10;62.90;;;;;;4999571;28;20053;-68
2023/04/08 10:50:45;;;;;;;1.40;0.60;;;19.10;62.90;;;;;;5009624;28;20046;-68
2023/04/08 10:53:12;;;;;;;1.45;0.95;;;19.10;62.90;;;;;;5008221;28;20150;-68
2023/04/08 10:55:39;;;;;;;1.00;0.20;;;19.10;62.90;;;;;;5009468;28;20599;-68
2023/04/08 10:58:07;;;;;;;1.20;0.28;;;19.10;62.90;;;;;;5009224;28;20049;-68
2023/04/08 11:00:37;;;;;;;1.50;0.80;;;19.10;63.00;;;;;;5013730;28;20060;-68
2023/04/08 11:03:05;;;;;;;1.33;0.40;;;19.10;63.00;;;;;;5012117;28;20512;-68
2023/04/08 11:05:32;;;;;;;1.63;0.28;;;19.10;63.00;;;;;;5013079;28;20062;-68
2023/04/08 11:08:00;;;;;;;1.30;0.70;;;19.10;63.00;;;;;;5013091;28;20519;-68
2023/04/08 11:10:27;;;;;;;0.95;0.25;;;19.10;63.00;;;;;;5011765;28;20062;-68
2023/04/08 11:12:55;;;;;;;1.05;0.30;;;19.10;63.60;;;;;;5013179;28;20053;-68
2023/04/08 11:15:22;;;;;;;1.00;0.30;;;19.10;63.10;;;;;;5013052;28;20053;-67
2023/04/08 11:17:52;;;;;;;0.90;0.30;;;19.10;63.10;;;;;;5012177;28;20496;-68
2023/04/08 11:20:19;;;;;;;1.00;0.20;;;19.10;63.10;;;;;;5011712;28;20137;-68
2023/04/08 11:22:47;;;;;;;0.98;0.20;;;19.10;63.00;;;;;;5012064;28;20062;-68
2023/04/08 11:25:14;;;;;;;1.40;0.47;;;19.10;63.10;;;;;;5013205;28;20053;-67
2023/04/08 11:27:42;;;;;;;1.30;0.98;;;19.10;63.10;;;;;;5012966;28;20383;-68
2023/04/08 11:30:10;;;;;;;1.00;0.30;;;19.10;63.10;;;;;;5013023;28;20046;-68
2023/04/08 11:32:39;;;;;;;1.20;0.30;;;19.10;63.10;;;;;;5012847;28;20053;-68
2023/04/08 11:35:08;;;;;;;1.50;0.95;;;19.10;63.10;;;;;;5013285;28;20137;-68
2023/04/08 11:37:39;;;;;;;1.75;0.90;;;19.10;63.10;;;;;;5010927;28;20057;-68
2023/04/08 11:40:10;;;;;;;1.25;0.38;;;19.10;63.10;;;;;;5002486;28;20058;-67
2023/04/08 11:42:38;;;;;;;1.05;0.28;;;19.10;63.00;;;;;;4993272;28;20046;-68
2023/04/08 11:45:11;;;;;;;1.08;0.20;;;19.10;63.00;;;;;;5001467;28;20057;-68
2023/04/08 11:47:39;;;;;;;1.38;0.70;;;19.10;63.00;;;;;;5012587;28;20053;-68
2023/04/08 11:50:09;;;;;;;1.52;0.98;;;19.10;62.90;;;;;;5010961;28;20054;-68
2023/04/08 11:52:44;;;;;;;1.42;0.47;;;19.20;63.00;;;;;;5012341;28;20157;-69
2023/04/08 11:55:11;;;;;;;1.23;0.20;;;19.20;62.90;;;;;;5012105;28;20057;-68
2023/04/08 11:57:38;;;;;;;1.60;1.05;;;19.30;62.80;;;;;;5012361;28;20408;-68
2023/04/08 12:00:07;;;;;;;1.40;0.73;;;19.30;62.80;;;;;;5011994;28;20565;-67
2023/04/08 12:02:34;;;;;;;1.00;0.25;;;19.40;62.70;;;;;;5012223;28;20045;-68
2023/04/08 12:05:02;;;;;;;1.40;0.40;;;19.50;62.70;;;;;;5012159;28;20056;-68
2023/04/08 12:07:31;;;;;;;1.20;0.45;;;19.50;62.50;;;;;;5011892;28;20100;-67
2023/04/08 12:09:58;;;;;;;1.95;0.40;;;19.60;62.50;;;;;;5011537;28;20077;-67
2023/04/08 12:12:25;;;;;;;1.77;0.30;;;19.70;62.40;;;;;;5012161;28;20050;-68
2023/04/08 12:14:52;;;;;;;1.23;0.32;;;19.70;62.30;;;;;;5011071;28;20164;-67
2023/04/08 12:17:19;;;;;;;1.38;0.32;;;19.80;62.20;;;;;;5011013;28;20057;-67
2023/04/08 12:19:46;;;;;;;1.38;0.40;;;19.80;62.20;;;;;;5010589;28;20073;-67
2023/04/08 12:22:13;;;;;;;1.30;0.40;;;19.90;62.20;;;;;;5011989;28;20053;-67
2023/04/08 12:24:42;;;;;;;1.70;1.05;;;19.90;62.10;;;;;;5010500;28;20060;-67
2023/04/08 12:27:09;;;;;;;2.13;1.13;;;19.90;62.10;;;;;;5012040;28;20050;-67
2023/04/08 12:29:36;;;;;;;1.30;0.30;;;19.90;62.10;;;;;;5011307;28;20042;-67
2023/04/08 12:32:04;;;;;;;1.35;0.30;;;19.90;62.10;;;;;;5011797;28;20054;-67
2023/04/08 12:34:31;;;;;;;1.70;1.10;;;19.90;62.20;;;;;;5011515;28;20124;-67
2023/04/08 12:36:58;;;;;;;1.45;0.80;;;19.90;62.20;;;;;;5010475;28;20058;-67
2023/04/08 12:39:25;;;;;;;1.50;0.50;;;19.90;62.20;;;;;;4991897;28;20061;-67
2023/04/08 12:41:53;;;;;;;1.77;1.23;;;19.90;62.20;;;;;;4991916;28;20057;-68
2023/04/08 12:44:21;;;;;;;1.10;0.30;;;19.90;62.30;;;;;;4994668;28;20499;-67
2023/04/08 12:46:48;;;;;;;1.10;0.30;;;19.90;62.30;;;;;;5011224;28;20053;-67
2023/04/08 12:49:15;;;;;;;1.63;0.90;;;19.90;62.30;;;;;;5010209;28;20094;-67
2023/04/08 12:51:42;;;;;;;1.45;0.35;;;19.90;62.30;;;;;;5011365;28;20404;-67
2023/04/08 12:54:08;;;;;;;1.42;0.50;;;19.80;62.30;;;;;;5011226;28;20058;-67